Time;durP1;ratioP1;P1;durP2;ratioP2;P2;SDS_P1;SDS_P2;PMS_P1;PMS_P2;Temp;Humidity;BMP_temperature;BMP_pressure;BME280_temperature;BME280_humidity;BME280_pressure;Samples;Min_cycle;Max_cycle;Signal;HPM_P1;HPM_P2
2023/07/15 00:02:17;;;;;;;7.05;2.70;;;22.20;93.40;;;;;;5072467;28;20163;-79
2023/07/15 00:04:42;;;;;;;6.78;2.63;;;22.20;93.70;;;;;;5073295;28;20047;-79
2023/07/15 00:07:08;;;;;;;6.25;2.75;;;22.20;93.70;;;;;;5071641;28;20024;-80
2023/07/15 00:09:35;;;;;;;6.03;2.70;;;22.10;93.90;;;;;;5072624;28;20070;-80
2023/07/15 00:12:01;;;;;;;6.63;2.60;;;22.00;94.00;;;;;;5072417;28;20027;-80
2023/07/15 00:14:28;;;;;;;3.83;2.47;;;22.00;94.00;;;;;;5071873;28;20035;-80
2023/07/15 00:16:54;;;;;;;6.00;2.70;;;22.00;93.90;;;;;;5072254;28;20032;-79
2023/07/15 00:19:20;;;;;;;4.65;2.75;;;22.10;94.00;;;;;;5072707;28;20028;-80
2023/07/15 00:21:47;;;;;;;4.38;2.40;;;22.10;93.60;;;;;;5072367;28;20094;-80
2023/07/15 00:24:13;;;;;;;3.28;2.13;;;22.20;93.60;;;;;;5072244;28;20078;-80
2023/07/15 00:26:40;;;;;;;3.70;2.03;;;22.10;93.60;;;;;;5073916;28;20020;-80
2023/07/15 00:29:06;;;;;;;2.33;1.85;;;22.20;93.40;;;;;;5072206;28;20033;-80
2023/07/15 00:31:33;;;;;;;4.72;2.80;;;22.10;93.60;;;;;;5072637;28;20045;-80
2023/07/15 00:33:59;;;;;;;3.90;2.28;;;22.00;93.60;;;;;;5072026;28;20454;-80
2023/07/15 00:36:26;;;;;;;3.58;2.05;;;22.00;93.70;;;;;;5072429;28;20027;-80
2023/07/15 00:38:53;;;;;;;4.25;2.30;;;22.00;93.60;;;;;;5072153;28;20116;-81
2023/07/15 00:41:23;;;;;;;5.00;2.20;;;22.00;93.60;;;;;;5072647;28;20453;-80
2023/07/15 00:44:02;;;;;;;2.65;1.90;;;22.00;93.70;;;;;;5072084;28;20038;-80
2023/07/15 00:46:31;;;;;;;3.83;2.50;;;21.90;93.10;;;;;;5072164;28;20044;-81
2023/07/15 00:49:16;;;;;;;3.63;2.03;;;21.90;93.40;;;;;;5071669;28;20052;-81
2023/07/15 00:51:48;;;;;;;5.68;2.30;;;21.80;93.40;;;;;;5072486;28;20457;-81
2023/07/15 00:54:15;;;;;;;2.47;2.15;;;21.80;93.20;;;;;;5072129;28;20484;-81
2023/07/15 00:56:43;;;;;;;3.75;2.10;;;21.80;93.50;;;;;;5073528;28;20113;-81
2023/07/15 00:59:11;;;;;;;3.50;2.17;;;21.80;93.60;;;;;;5073120;28;20035;-80
2023/07/15 01:01:36;;;;;;;3.63;2.22;;;21.70;93.60;;;;;;5071816;28;20016;-80
2023/07/15 01:04:02;;;;;;;2.70;2.28;;;21.70;93.50;;;;;;5071301;28;20476;-80
2023/07/15 01:06:28;;;;;;;4.88;2.10;;;21.70;93.60;;;;;;5072188;28;20025;-80
2023/07/15 01:08:54;;;;;;;2.80;1.83;;;21.70;93.70;;;;;;5071807;28;20437;-80
2023/07/15 01:11:20;;;;;;;2.72;2.00;;;21.60;93.70;;;;;;5072076;28;20017;-80
2023/07/15 01:13:45;;;;;;;2.47;1.92;;;21.60;93.80;;;;;;5072004;28;20059;-80
2023/07/15 01:16:11;;;;;;;2.50;2.00;;;21.50;93.80;;;;;;5071546;28;20041;-80
2023/07/15 01:18:36;;;;;;;3.85;2.13;;;21.50;93.90;;;;;;5072123;28;20357;-80
2023/07/15 01:21:03;;;;;;;3.60;2.05;;;21.60;94.00;;;;;;5071420;28;20021;-80
2023/07/15 01:23:29;;;;;;;3.88;1.98;;;21.60;94.00;;;;;;5072943;28;20029;-80
2023/07/15 01:25:58;;;;;;;3.33;1.63;;;21.60;94.10;;;;;;5074359;28;20043;-80
2023/07/15 01:28:24;;;;;;;4.13;1.85;;;21.60;94.00;;;;;;5076630;28;20082;-80
2023/07/15 01:30:49;;;;;;;4.03;2.00;;;21.50;94.00;;;;;;5075241;28;20461;-80
2023/07/15 01:33:15;;;;;;;2.53;1.88;;;21.50;94.00;;;;;;5074904;28;20035;-79
2023/07/15 01:35:46;;;;;;;3.95;2.10;;;21.50;94.10;;;;;;5075294;28;20031;-80
2023/07/15 01:38:11;;;;;;;2.97;2.00;;;21.40;94.50;;;;;;5074854;28;20611;-80
2023/07/15 01:40:38;;;;;;;4.50;1.92;;;21.40;94.40;;;;;;5075116;28;20029;-79
2023/07/15 01:43:04;;;;;;;6.00;2.42;;;21.30;94.70;;;;;;5075969;28;20024;-80
2023/07/15 01:45:30;;;;;;;3.80;1.90;;;21.40;94.70;;;;;;5076529;28;20044;-79
2023/07/15 01:47:56;;;;;;;4.00;1.80;;;21.40;94.70;;;;;;5074398;28;20024;-79
2023/07/15 01:50:21;;;;;;;2.95;1.88;;;21.30;94.80;;;;;;5074814;28;20024;-79
2023/07/15 01:52:47;;;;;;;4.80;2.00;;;21.30;94.90;;;;;;5074940;28;20024;-80
2023/07/15 01:55:13;;;;;;;4.90;1.77;;;21.20;95.00;;;;;;5074648;28;20028;-80
2023/07/15 01:57:38;;;;;;;6.88;2.13;;;21.20;95.20;;;;;;5074637;28;20036;-79
2023/07/15 02:00:08;;;;;;;2.95;2.13;;;21.20;95.20;;;;;;5074350;28;20025;-80
2023/07/15 02:02:34;;;;;;;3.28;1.67;;;21.20;95.30;;;;;;5076159;28;20024;-79
2023/07/15 02:05:00;;;;;;;3.22;2.05;;;21.20;95.50;;;;;;5074310;28;20012;-80
2023/07/15 02:07:25;;;;;;;3.40;2.05;;;21.10;95.70;;;;;;5074591;28;20101;-80
2023/07/15 02:09:51;;;;;;;5.70;2.30;;;21.10;95.80;;;;;;5074561;28;20485;-79
2023/07/15 02:12:16;;;;;;;6.15;1.95;;;21.00;96.10;;;;;;5074953;28;20105;-79
2023/07/15 02:14:43;;;;;;;4.90;2.08;;;20.90;96.30;;;;;;5074688;28;20115;-80
2023/07/15 02:17:08;;;;;;;2.85;1.90;;;20.90;96.70;;;;;;5073909;28;20036;-79
2023/07/15 02:19:34;;;;;;;5.82;1.92;;;20.90;96.60;;;;;;5074279;28;20025;-79
2023/07/15 02:22:00;;;;;;;5.72;2.17;;;20.90;96.60;;;;;;5073623;28;20082;-80
2023/07/15 02:24:26;;;;;;;5.22;2.42;;;21.00;96.60;;;;;;5074071;28;20028;-80
2023/07/15 02:26:51;;;;;;;5.05;1.90;;;21.00;96.40;;;;;;5073522;28;20020;-79
2023/07/15 02:29:17;;;;;;;3.03;2.08;;;21.00;96.40;;;;;;5073377;28;20111;-79
2023/07/15 02:31:43;;;;;;;3.83;2.22;;;21.10;96.30;;;;;;5074095;28;20048;-79
2023/07/15 02:34:09;;;;;;;4.97;2.03;;;21.00;96.20;;;;;;5073676;28;20020;-79
2023/07/15 02:36:35;;;;;;;2.90;2.05;;;21.10;96.30;;;;;;5073099;28;20078;-79
2023/07/15 02:39:04;;;;;;;2.35;1.73;;;21.00;96.50;;;;;;5074731;28;20055;-78
2023/07/15 02:41:29;;;;;;;5.65;1.95;;;21.00;96.70;;;;;;5074965;28;20031;-79
2023/07/15 02:43:55;;;;;;;2.13;1.67;;;21.00;96.90;;;;;;5074614;28;20024;-79
2023/07/15 02:46:20;;;;;;;3.22;1.83;;;21.00;97.00;;;;;;5074441;28;20101;-79
2023/07/15 02:48:46;;;;;;;2.25;1.92;;;21.00;96.90;;;;;;5073787;28;20016;-78
2023/07/15 02:51:12;;;;;;;3.45;2.05;;;21.00;97.20;;;;;;5073178;28;20365;-79
2023/07/15 02:53:39;;;;;;;3.22;1.85;;;21.00;97.30;;;;;;5074447;28;20021;-79
2023/07/15 02:56:05;;;;;;;2.30;1.98;;;20.90;97.40;;;;;;5073161;28;20028;-79
2023/07/15 02:58:31;;;;;;;6.63;2.20;;;20.90;97.40;;;;;;5074751;28;20181;-79
2023/07/15 03:00:57;;;;;;;2.38;2.08;;;20.90;97.70;;;;;;5074489;28;20465;-80
2023/07/15 03:03:22;;;;;;;3.53;1.85;;;20.90;97.60;;;;;;5072885;28;20458;-79
2023/07/15 03:05:49;;;;;;;9.18;2.63;;;20.90;97.90;;;;;;5072953;28;20518;-79
2023/07/15 03:08:15;;;;;;;4.53;1.98;;;20.90;97.70;;;;;;5072736;28;20059;-79
2023/07/15 03:10:44;;;;;;;4.47;1.98;;;20.90;97.60;;;;;;5073401;28;20048;-79
2023/07/15 03:13:10;;;;;;;2.17;1.77;;;20.80;97.50;;;;;;5072630;28;20115;-79
2023/07/15 03:15:36;;;;;;;3.67;1.77;;;20.80;97.60;;;;;;5073261;28;20458;-79
2023/07/15 03:18:02;;;;;;;2.47;1.63;;;20.80;97.60;;;;;;5072507;28;20024;-78
2023/07/15 03:20:28;;;;;;;3.75;1.77;;;20.90;97.50;;;;;;5073308;28;20020;-79
2023/07/15 03:22:54;;;;;;;3.50;2.13;;;20.80;97.40;;;;;;5072972;28;20525;-79
2023/07/15 03:25:20;;;;;;;3.03;1.80;;;20.70;97.40;;;;;;5073381;28;20033;-79
2023/07/15 03:27:47;;;;;;;2.75;1.73;;;20.60;97.50;;;;;;5073907;28;20086;-79
2023/07/15 03:30:14;;;;;;;3.70;1.80;;;20.60;97.60;;;;;;5072011;28;20020;-79
2023/07/15 03:32:40;;;;;;;5.50;2.00;;;20.60;97.60;;;;;;5072895;28;20017;-79
2023/07/15 03:35:08;;;;;;;2.25;1.52;;;20.60;97.60;;;;;;5072124;28;20078;-79
2023/07/15 03:37:35;;;;;;;2.35;2.08;;;20.60;97.50;;;;;;5072926;28;20027;-79
2023/07/15 03:40:04;;;;;;;3.58;2.08;;;20.60;97.40;;;;;;5073236;28;20524;-80
2023/07/15 03:42:30;;;;;;;2.00;1.75;;;20.60;97.20;;;;;;5073081;28;20025;-79
2023/07/15 03:44:55;;;;;;;2.33;1.88;;;20.50;97.20;;;;;;5072830;28;20055;-79
2023/07/15 03:47:21;;;;;;;4.03;1.80;;;20.50;97.10;;;;;;5073793;28;20024;-79
2023/07/15 03:49:47;;;;;;;2.90;2.10;;;20.50;97.30;;;;;;5072867;28;20020;-79
2023/07/15 03:52:12;;;;;;;3.40;1.98;;;20.50;97.40;;;;;;5072257;28;20021;-79
2023/07/15 03:54:38;;;;;;;3.38;2.00;;;20.50;97.40;;;;;;5072844;28;20028;-79
2023/07/15 03:57:04;;;;;;;2.47;1.73;;;20.50;97.20;;;;;;5072099;28;20082;-79
2023/07/15 03:59:29;;;;;;;2.95;2.00;;;20.40;97.30;;;;;;5072833;28;20111;-79
2023/07/15 04:01:55;;;;;;;2.90;1.70;;;20.40;97.40;;;;;;5072248;28;20029;-80
2023/07/15 04:04:24;;;;;;;3.28;1.92;;;20.50;97.30;;;;;;5071787;28;20074;-81
2023/07/15 04:06:49;;;;;;;4.40;1.77;;;20.50;97.30;;;;;;5072630;28;20081;-80
2023/07/15 04:09:16;;;;;;;2.65;1.50;;;20.60;97.30;;;;;;5075341;28;20449;-79
2023/07/15 04:11:44;;;;;;;2.80;1.90;;;20.50;97.30;;;;;;5072687;28;20154;-79
2023/07/15 04:14:12;;;;;;;3.10;1.95;;;20.60;97.40;;;;;;5071736;28;20054;-80
2023/07/15 04:16:38;;;;;;;2.42;1.88;;;20.50;97.40;;;;;;5072360;28;20035;-80
2023/07/15 04:19:03;;;;;;;4.03;2.00;;;20.50;97.40;;;;;;5072175;28;20024;-79
2023/07/15 04:21:29;;;;;;;2.78;1.80;;;20.50;97.20;;;;;;5072705;28;20024;-79
2023/07/15 04:23:55;;;;;;;3.60;1.83;;;20.50;97.30;;;;;;5073773;28;20035;-80
2023/07/15 04:26:25;;;;;;;2.42;1.90;;;20.60;97.80;;;;;;5073264;28;20031;-80
2023/07/15 04:28:51;;;;;;;2.55;1.80;;;20.50;97.80;;;;;;5072403;28;20491;-79
2023/07/15 04:31:17;;;;;;;3.45;2.15;;;20.60;97.70;;;;;;5073191;28;20070;-80
2023/07/15 04:33:47;;;;;;;3.80;1.85;;;20.60;97.20;;;;;;5073542;28;20032;-79
2023/07/15 04:36:14;;;;;;;2.22;1.83;;;20.70;97.40;;;;;;5071706;28;20031;-79
2023/07/15 04:38:40;;;;;;;2.47;1.80;;;20.70;97.90;;;;;;5072515;28;20025;-80
2023/07/15 04:41:06;;;;;;;3.50;2.40;;;20.70;97.70;;;;;;5071645;28;20074;-80
2023/07/15 04:43:31;;;;;;;3.95;1.83;;;20.70;97.80;;;;;;5071951;28;20066;-79
2023/07/15 04:45:58;;;;;;;3.63;1.70;;;20.70;97.90;;;;;;5072702;28;20124;-79
2023/07/15 04:48:24;;;;;;;3.33;2.00;;;20.70;98.00;;;;;;5071265;28;20025;-79
2023/07/15 04:50:50;;;;;;;2.95;1.83;;;20.70;98.00;;;;;;5073233;28;20020;-79
2023/07/15 04:53:16;;;;;;;2.92;1.88;;;20.80;98.10;;;;;;5071548;28;20032;-79
2023/07/15 04:55:42;;;;;;;5.35;1.77;;;20.80;98.00;;;;;;5071877;28;20032;-79
2023/07/15 04:58:09;;;;;;;2.42;1.73;;;20.80;98.00;;;;;;5071465;28;20020;-79
2023/07/15 05:00:36;;;;;;;6.03;2.05;;;20.80;98.10;;;;;;5073503;28;20020;-79
2023/07/15 05:03:02;;;;;;;4.63;2.03;;;20.90;98.20;;;;;;5075703;28;20035;-79
2023/07/15 05:05:28;;;;;;;3.10;1.95;;;20.80;98.20;;;;;;5075435;28;20020;-79
2023/07/15 05:07:59;;;;;;;3.75;1.63;;;20.90;98.50;;;;;;5075744;28;20025;-79
2023/07/15 05:10:25;;;;;;;2.67;2.00;;;20.90;98.80;;;;;;5076223;28;20103;-79
2023/07/15 05:12:50;;;;;;;5.20;1.83;;;21.00;99.10;;;;;;5075238;28;20461;-79
2023/07/15 05:15:16;;;;;;;3.50;1.92;;;21.00;99.30;;;;;;5074953;28;20346;-79
2023/07/15 05:17:44;;;;;;;2.78;1.80;;;21.00;99.60;;;;;;5075125;28;20055;-80
2023/07/15 05:20:10;;;;;;;4.40;2.10;;;21.00;99.50;;;;;;5074901;28;20029;-79
2023/07/15 05:22:36;;;;;;;5.00;1.83;;;21.00;99.50;;;;;;5075224;28;20035;-79
2023/07/15 05:25:01;;;;;;;4.05;1.98;;;21.10;99.40;;;;;;5075221;28;20021;-79
2023/07/15 05:27:27;;;;;;;3.15;1.80;;;21.10;99.30;;;;;;5074474;28;20028;-79
2023/07/15 05:29:52;;;;;;;2.00;1.80;;;21.10;99.00;;;;;;5074716;28;20024;-79
2023/07/15 05:32:18;;;;;;;2.45;1.75;;;21.20;98.80;;;;;;5075189;28;20028;-79
2023/07/15 05:34:43;;;;;;;3.28;1.70;;;21.30;98.90;;;;;;5074639;28;20032;-79
2023/07/15 05:37:09;;;;;;;2.80;1.90;;;21.40;98.50;;;;;;5074358;28;20025;-79
2023/07/15 05:39:35;;;;;;;2.85;1.63;;;21.50;98.60;;;;;;5075172;28;20441;-80
2023/07/15 05:42:00;;;;;;;1.80;1.60;;;21.60;98.00;;;;;;5074938;28;20029;-79
2023/07/15 05:44:26;;;;;;;2.78;1.55;;;21.60;98.10;;;;;;5074348;28;20063;-80
2023/07/15 05:46:52;;;;;;;2.33;1.50;;;21.70;97.90;;;;;;5074514;28;20111;-79
2023/07/15 05:49:17;;;;;;;2.35;1.40;;;21.80;97.50;;;;;;5073923;28;20453;-80
2023/07/15 05:51:43;;;;;;;1.70;1.60;;;21.90;97.30;;;;;;5074253;28;20021;-79
2023/07/15 05:54:08;;;;;;;2.20;1.55;;;22.00;97.00;;;;;;5074803;28;20082;-79
2023/07/15 05:56:34;;;;;;;3.78;1.60;;;22.00;96.90;;;;;;5074439;28;20040;-79
2023/07/15 05:59:00;;;;;;;2.72;1.52;;;22.10;96.50;;;;;;5075896;28;20357;-79
2023/07/15 06:01:25;;;;;;;3.25;1.73;;;22.10;96.30;;;;;;5073809;28;20086;-79
2023/07/15 06:03:51;;;;;;;3.00;1.65;;;22.10;96.50;;;;;;5074300;28;20427;-79
2023/07/15 06:06:16;;;;;;;2.80;1.40;;;22.10;96.50;;;;;;5073680;28;20016;-79
2023/07/15 06:08:42;;;;;;;4.50;1.60;;;22.20;96.60;;;;;;5074423;28;20024;-79
2023/07/15 06:11:09;;;;;;;2.53;1.38;;;22.20;96.50;;;;;;5073128;28;20070;-80
2023/07/15 06:13:35;;;;;;;4.38;1.77;;;22.30;96.70;;;;;;5075463;28;20020;-80
2023/07/15 06:16:00;;;;;;;4.90;1.70;;;22.40;97.00;;;;;;5076158;28;20178;-79
2023/07/15 06:18:26;;;;;;;2.30;1.58;;;22.40;96.30;;;;;;5074695;28;20035;-80
2023/07/15 06:20:51;;;;;;;2.03;1.50;;;22.50;96.20;;;;;;5075515;28;20016;-79
2023/07/15 06:23:17;;;;;;;4.93;2.15;;;22.50;96.00;;;;;;5073688;28;20024;-79
2023/07/15 06:25:43;;;;;;;3.90;1.85;;;22.50;95.70;;;;;;5074137;28;20025;-79
2023/07/15 06:28:08;;;;;;;3.17;1.80;;;22.50;96.10;;;;;;5073940;28;20082;-80
2023/07/15 06:30:34;;;;;;;2.88;1.52;;;22.70;95.60;;;;;;5074015;28;20529;-80
2023/07/15 06:33:00;;;;;;;3.10;1.80;;;22.80;95.20;;;;;;5074304;28;20028;-80
2023/07/15 06:35:25;;;;;;;4.32;1.90;;;22.90;95.20;;;;;;5067889;28;20021;-80
2023/07/15 06:37:51;;;;;;;4.88;1.70;;;23.10;94.90;;;;;;5073922;28;20457;-80
2023/07/15 06:40:18;;;;;;;4.65;1.80;;;23.20;94.90;;;;;;5073460;28;20020;-80
2023/07/15 06:42:44;;;;;;;3.28;1.80;;;23.30;94.90;;;;;;5073860;28;20021;-80
2023/07/15 06:45:11;;;;;;;2.35;1.65;;;23.40;94.60;;;;;;5073153;28;20055;-80
2023/07/15 06:47:37;;;;;;;4.00;2.00;;;23.40;94.40;;;;;;5073548;28;20021;-80
2023/07/15 06:50:02;;;;;;;1.90;1.60;;;23.50;94.30;;;;;;5073328;28;20070;-80
2023/07/15 06:52:28;;;;;;;3.25;1.60;;;23.60;94.00;;;;;;5073137;28;20039;-79
2023/07/15 06:54:54;;;;;;;4.18;1.77;;;23.80;93.70;;;;;;5073128;28;20044;-80
2023/07/15 06:57:19;;;;;;;7.45;1.98;;;23.90;93.60;;;;;;5073748;28;20032;-80
2023/07/15 06:59:46;;;;;;;5.32;2.08;;;23.90;93.40;;;;;;5074080;28;20046;-79
2023/07/15 07:02:11;;;;;;;6.10;2.28;;;24.00;93.10;;;;;;5071864;28;20016;-79
2023/07/15 07:04:37;;;;;;;4.78;2.00;;;23.90;92.70;;;;;;5073520;28;20052;-79
2023/07/15 07:07:03;;;;;;;2.35;1.73;;;23.90;92.60;;;;;;5072694;28;20021;-79
2023/07/15 07:09:29;;;;;;;3.55;1.60;;;23.90;92.40;;;;;;5072019;28;20429;-79
2023/07/15 07:11:54;;;;;;;3.90;1.70;;;24.00;92.60;;;;;;5072486;28;20446;-79
2023/07/15 07:14:20;;;;;;;6.18;1.90;;;24.00;92.70;;;;;;5071838;28;20028;-80
2023/07/15 07:16:45;;;;;;;3.22;1.98;;;24.10;93.00;;;;;;5072048;28;20027;-80
2023/07/15 07:19:11;;;;;;;2.40;1.70;;;24.10;93.00;;;;;;5071871;28;20017;-80
2023/07/15 07:21:37;;;;;;;3.17;1.60;;;24.20;92.90;;;;;;5068740;28;20028;-84
2023/07/15 07:24:02;;;;;;;3.00;1.73;;;24.30;92.90;;;;;;5070357;28;20116;-85
2023/07/15 07:26:28;;;;;;;4.97;1.90;;;24.30;93.00;;;;;;5074416;28;20025;-86
2023/07/15 07:28:53;;;;;;;7.07;3.10;;;24.40;92.90;;;;;;5073147;28;20036;-81
2023/07/15 07:31:19;;;;;;;3.92;2.95;;;24.50;92.40;;;;;;5073763;28;20027;-86
2023/07/15 07:33:45;;;;;;;5.22;3.00;;;24.50;92.10;;;;;;5070225;28;20369;-79
2023/07/15 07:36:11;;;;;;;5.22;2.10;;;24.40;91.90;;;;;;5070301;28;20029;-80
2023/07/15 07:38:37;;;;;;;6.63;2.90;;;24.40;91.80;;;;;;5071220;28;20027;-80
2023/07/15 07:41:10;;;;;;;4.05;2.10;;;24.50;91.80;;;;;;5071782;28;20476;-79
2023/07/15 07:43:37;;;;;;;3.45;1.60;;;24.50;91.80;;;;;;5071726;28;20031;-84
2023/07/15 07:46:08;;;;;;;3.03;1.98;;;24.50;92.10;;;;;;5071123;28;20449;-78
2023/07/15 07:48:34;;;;;;;;;;;24.50;92.40;;;;;;5072534;28;20024;-77
2023/07/15 07:51:01;;;;;;;1.88;1.48;;;24.50;92.20;;;;;;5072934;28;19904;-79
2023/07/15 07:53:28;;;;;;;6.07;1.65;;;24.60;92.20;;;;;;5071092;28;20043;-78
2023/07/15 07:55:53;;;;;;;3.08;1.65;;;24.70;91.80;;;;;;5072204;28;20024;-78
2023/07/15 07:58:19;;;;;;;3.13;2.13;;;24.70;92.00;;;;;;5071178;28;20040;-86
2023/07/15 08:00:45;;;;;;;4.20;1.80;;;24.80;93.00;;;;;;5073128;28;20024;-86
2023/07/15 08:03:11;;;;;;;3.20;1.83;;;24.80;91.90;;;;;;5071482;28;20028;-85
2023/07/15 08:05:47;;;;;;;2.20;1.67;;;24.80;92.10;;;;;;5072186;28;20025;-91
2023/07/15 08:08:14;;;;;;;2.45;1.90;;;24.80;91.90;;;;;;5072768;28;20024;-89
2023/07/15 08:10:40;;;;;;;2.88;1.90;;;24.80;92.40;;;;;;5072401;28;20113;-91
2023/07/15 08:13:07;;;;;;;4.88;1.98;;;24.90;92.60;;;;;;5073252;28;20025;-89
2023/07/15 08:15:37;;;;;;;1.85;1.65;;;24.90;92.60;;;;;;5071808;28;20025;-92
2023/07/15 08:18:03;;;;;;;3.60;1.80;;;25.00;92.60;;;;;;5071516;28;20115;-94
2023/07/15 08:20:30;;;;;;;3.15;1.63;;;25.10;92.80;;;;;;5073047;28;20111;-92
2023/07/15 08:22:57;;;;;;;3.85;1.73;;;25.20;92.50;;;;;;5071990;28;20024;-93
2023/07/15 08:25:23;;;;;;;2.55;1.70;;;25.20;92.40;;;;;;5071665;28;20111;-83
2023/07/15 08:27:48;;;;;;;2.50;2.17;;;25.40;92.20;;;;;;5072391;28;20481;-84
2023/07/15 08:30:14;;;;;;;3.33;2.15;;;25.50;91.80;;;;;;5072657;28;20461;-87
2023/07/15 08:32:40;;;;;;;3.45;1.95;;;25.70;91.50;;;;;;5072272;28;20024;-84
2023/07/15 08:35:05;;;;;;;3.08;1.70;;;25.70;91.30;;;;;;5073675;28;20449;-83
2023/07/15 08:37:32;;;;;;;3.17;1.70;;;25.90;91.00;;;;;;5073064;28;20024;-83
2023/07/15 08:39:57;;;;;;;4.40;1.88;;;26.00;90.80;;;;;;5076128;28;20028;-83
2023/07/15 08:42:24;;;;;;;4.32;1.90;;;26.10;90.60;;;;;;5075213;28;20021;-84
2023/07/15 08:44:51;;;;;;;2.88;1.83;;;26.20;90.30;;;;;;5075264;28;20127;-84
2023/07/15 08:47:22;;;;;;;3.30;1.80;;;26.30;90.70;;;;;;5076709;28;20096;-86
2023/07/15 08:49:49;;;;;;;5.38;1.77;;;26.50;90.60;;;;;;5075934;28;20016;-84
2023/07/15 08:52:22;;;;;;;1.83;1.60;;;26.50;90.60;;;;;;5077038;28;20023;-86
2023/07/15 08:54:50;;;;;;;3.55;1.90;;;26.50;90.40;;;;;;5076033;28;20033;-87
2023/07/15 08:57:22;;;;;;;3.15;1.88;;;26.50;90.30;;;;;;5062532;28;20035;-86
2023/07/15 08:59:49;;;;;;;2.88;1.77;;;26.60;90.00;;;;;;5076600;28;20047;-84
2023/07/15 09:02:14;;;;;;;4.55;1.80;;;26.60;89.70;;;;;;5075290;28;20024;-79
2023/07/15 09:04:40;;;;;;;4.03;2.00;;;26.60;90.30;;;;;;5074561;28;20028;-80
2023/07/15 09:07:06;;;;;;;5.07;2.00;;;26.60;90.50;;;;;;5075289;28;20035;-85
2023/07/15 09:09:34;;;;;;;2.47;1.88;;;26.50;90.60;;;;;;5075302;28;20412;-88
2023/07/15 09:12:06;;;;;;;3.22;2.20;;;26.50;90.60;;;;;;5077067;28;20020;-88
2023/07/15 09:14:37;;;;;;;4.10;2.15;;;26.40;90.70;;;;;;5076400;28;20023;-88
2023/07/15 09:17:02;;;;;;;7.78;2.60;;;26.40;90.70;;;;;;5075480;28;20024;-91
2023/07/15 09:19:32;;;;;;;4.97;2.85;;;26.30;90.60;;;;;;5074963;28;20172;-90
2023/07/15 09:22:06;;;;;;;10.95;6.38;;;26.30;91.00;;;;;;5075324;28;20028;-87
2023/07/15 09:24:33;;;;;;;6.22;2.58;;;26.30;91.30;;;;;;5074831;28;20063;-87
2023/07/15 09:27:02;;;;;;;3.95;2.10;;;26.30;91.60;;;;;;5077049;28;20052;-86
2023/07/15 09:29:27;;;;;;;2.58;2.08;;;26.40;91.60;;;;;;5075302;28;20048;-86
2023/07/15 09:31:53;;;;;;;3.15;2.10;;;26.30;91.50;;;;;;5075573;28;20361;-86
2023/07/15 09:34:19;;;;;;;5.22;2.03;;;26.40;91.00;;;;;;5075844;28;20445;-85
2023/07/15 09:36:45;;;;;;;3.90;1.83;;;26.50;90.80;;;;;;5074730;28;20127;-83
2023/07/15 09:39:13;;;;;;;2.70;1.80;;;26.50;90.70;;;;;;5075302;28;20095;-82
2023/07/15 09:41:40;;;;;;;2.63;1.80;;;26.50;91.00;;;;;;5075531;28;20073;-83
2023/07/15 09:44:06;;;;;;;3.30;2.10;;;26.50;91.60;;;;;;5075468;28;20053;-82
2023/07/15 09:46:32;;;;;;;3.03;2.00;;;26.50;92.00;;;;;;5075652;28;20124;-82
2023/07/15 09:48:58;;;;;;;3.17;2.28;;;26.60;92.30;;;;;;5075148;28;20073;-83
2023/07/15 09:51:34;;;;;;;3.70;2.28;;;26.70;92.40;;;;;;5074651;28;20027;-84
2023/07/15 09:54:01;;;;;;;4.22;2.10;;;27.00;92.20;;;;;;5074974;28;20028;-82
2023/07/15 09:56:37;;;;;;;2.33;1.85;;;27.20;91.80;;;;;;5075216;28;20077;-83
2023/07/15 09:59:21;;;;;;;4.18;2.65;;;27.30;91.20;;;;;;5074496;28;20035;-82
2023/07/15 10:02:04;;;;;;;5.97;2.50;;;27.50;90.80;;;;;;5065753;28;20013;-82
2023/07/15 10:04:43;;;;;;;3.72;1.70;;;27.50;89.80;;;;;;5073352;28;20036;-83
2023/07/15 10:07:09;;;;;;;2.80;1.88;;;27.60;89.10;;;;;;5074326;28;20024;-83
2023/07/15 10:09:36;;;;;;;3.58;1.73;;;27.70;89.10;;;;;;5074177;28;20021;-82
2023/07/15 10:12:02;;;;;;;11.05;1.90;;;27.90;87.60;;;;;;5074712;28;20084;-85
2023/07/15 10:14:31;;;;;;;3.95;2.00;;;28.10;85.50;;;;;;5074111;28;20462;-85
2023/07/15 10:17:10;;;;;;;2.75;1.75;;;28.20;85.90;;;;;;5074418;28;20365;-85
2023/07/15 10:19:50;;;;;;;5.40;1.73;;;28.30;85.50;;;;;;5073957;28;20025;-84
2023/07/15 10:22:21;;;;;;;2.85;1.70;;;28.30;82.60;;;;;;5073503;28;20130;-85
2023/07/15 10:24:55;;;;;;;3.60;2.38;;;28.40;83.00;;;;;;5074723;28;20056;-86
2023/07/15 10:27:21;;;;;;;4.13;1.98;;;28.50;82.90;;;;;;5075410;28;20040;-83
2023/07/15 10:30:17;;;;;;;3.72;2.10;;;28.60;82.50;;;;;;5075288;28;20044;-85
2023/07/15 10:32:58;;;;;;;4.00;3.20;;;28.60;82.00;;;;;;5073949;28;20016;-84
2023/07/15 10:35:26;;;;;;;4.68;2.13;;;28.70;81.90;;;;;;5074141;28;20028;-85
2023/07/15 10:37:52;;;;;;;3.25;1.92;;;28.80;82.30;;;;;;5073851;28;20489;-83
2023/07/15 10:40:49;;;;;;;5.90;1.77;;;28.70;82.00;;;;;;5073969;28;20046;-84
2023/07/15 10:43:35;;;;;;;5.38;1.90;;;28.60;81.90;;;;;;5061157;28;20020;-86
2023/07/15 10:46:08;;;;;;;3.97;2.10;;;28.60;81.40;;;;;;5073655;28;20104;-85
2023/07/15 10:48:34;;;;;;;2.60;1.55;;;28.50;81.80;;;;;;5073703;28;20016;-91
2023/07/15 10:51:07;;;;;;;4.88;1.85;;;28.40;82.30;;;;;;5073625;28;20021;-85
2023/07/15 10:53:33;;;;;;;4.78;1.90;;;28.30;82.30;;;;;;5074042;28;20041;-83
2023/07/15 10:56:10;;;;;;;2.97;1.75;;;28.30;81.90;;;;;;5074453;28;20115;-83
2023/07/15 10:58:37;;;;;;;6.07;2.10;;;28.30;81.00;;;;;;5073155;28;20031;-83
2023/07/15 11:01:05;;;;;;;3.47;2.00;;;28.30;81.30;;;;;;5073649;28;20028;-83
2023/07/15 11:03:33;;;;;;;4.63;2.00;;;28.30;81.50;;;;;;5073053;28;20022;-83
2023/07/15 11:06:01;;;;;;;3.72;1.73;;;28.20;81.60;;;;;;5073771;28;20033;-85
2023/07/15 11:08:28;;;;;;;3.42;2.00;;;28.20;82.10;;;;;;5073391;28;20052;-82
2023/07/15 11:11:01;;;;;;;6.13;2.05;;;28.20;83.20;;;;;;5073643;28;20016;-82
2023/07/15 11:13:27;;;;;;;3.83;1.70;;;28.10;83.10;;;;;;5073166;28;20025;-82
2023/07/15 11:15:53;;;;;;;3.38;1.77;;;28.10;83.00;;;;;;5073043;28;20067;-84
2023/07/15 11:18:21;;;;;;;3.30;1.70;;;28.00;83.00;;;;;;5072739;28;20453;-85
2023/07/15 11:20:50;;;;;;;5.03;1.65;;;28.00;83.00;;;;;;5072763;28;20027;-85
2023/07/15 11:23:16;;;;;;;3.95;2.05;;;28.00;83.10;;;;;;5072025;28;20025;-84
2023/07/15 11:25:42;;;;;;;5.40;2.05;;;28.00;83.20;;;;;;5072606;28;20078;-86
2023/07/15 11:28:09;;;;;;;3.85;2.25;;;28.20;82.70;;;;;;5073599;28;20028;-85
2023/07/15 11:30:43;;;;;;;4.28;1.85;;;28.30;82.40;;;;;;5072554;28;20051;-86
2023/07/15 11:33:10;;;;;;;7.75;1.90;;;28.50;81.70;;;;;;5072381;28;20115;-84
2023/07/15 11:35:37;;;;;;;3.05;1.75;;;28.70;80.70;;;;;;5072154;28;20460;-81
2023/07/15 11:38:16;;;;;;;4.35;2.05;;;28.80;81.00;;;;;;5072019;28;20027;-80
2023/07/15 11:40:52;;;;;;;6.18;2.00;;;28.90;80.70;;;;;;5070513;28;20021;-80
2023/07/15 11:43:19;;;;;;;4.80;2.25;;;29.00;81.00;;;;;;5058781;28;20027;-82
2023/07/15 11:45:45;;;;;;;5.60;1.90;;;29.00;81.20;;;;;;5071866;28;20077;-80
2023/07/15 11:48:11;;;;;;;4.97;2.10;;;29.10;80.80;;;;;;5071881;28;20553;-81
2023/07/15 11:50:37;;;;;;;4.60;2.08;;;29.20;80.10;;;;;;5072143;28;20017;-81
2023/07/15 11:53:02;;;;;;;8.43;2.00;;;29.20;80.20;;;;;;5071690;28;20020;-79
2023/07/15 11:55:29;;;;;;;3.80;2.00;;;29.10;81.10;;;;;;5072201;28;20033;-88
2023/07/15 11:57:55;;;;;;;3.35;1.90;;;29.10;80.40;;;;;;5071956;28;20138;-88
2023/07/15 12:00:29;;;;;;;3.40;1.92;;;29.00;80.60;;;;;;5071967;28;20103;-88
2023/07/15 12:02:55;;;;;;;5.57;2.13;;;29.00;81.20;;;;;;5069573;28;20024;-86
2023/07/15 12:05:22;;;;;;;6.43;2.20;;;29.00;82.30;;;;;;5071532;28;20099;-90
2023/07/15 12:07:51;;;;;;;3.60;1.92;;;29.00;82.60;;;;;;5074060;28;20445;-86
2023/07/15 12:10:18;;;;;;;4.75;1.85;;;29.00;82.70;;;;;;5071804;28;20075;-84
2023/07/15 12:12:45;;;;;;;6.25;2.17;;;29.00;83.00;;;;;;5072068;28;20024;-85
2023/07/15 12:15:19;;;;;;;3.55;1.98;;;29.00;83.40;;;;;;5072611;28;20035;-83
2023/07/15 12:17:45;;;;;;;8.10;2.65;;;29.00;83.10;;;;;;5065973;28;20131;-83
2023/07/15 12:20:11;;;;;;;3.72;1.80;;;29.00;83.30;;;;;;5071581;28;20056;-83
2023/07/15 12:22:40;;;;;;;6.25;2.05;;;28.90;83.40;;;;;;5071454;28;20102;-84
2023/07/15 12:25:06;;;;;;;5.03;2.03;;;28.90;83.50;;;;;;5072931;28;20055;-85
2023/07/15 12:27:32;;;;;;;7.38;2.53;;;29.00;83.80;;;;;;5072489;28;20052;-83
2023/07/15 12:29:58;;;;;;;3.90;2.47;;;29.10;84.00;;;;;;5072080;28;20027;-83
2023/07/15 12:32:25;;;;;;;6.80;2.22;;;29.10;83.10;;;;;;5072310;28;20103;-82
2023/07/15 12:34:50;;;;;;;4.63;2.00;;;29.20;83.00;;;;;;5071844;28;20024;-82
2023/07/15 12:37:16;;;;;;;6.25;2.30;;;29.30;82.90;;;;;;5071209;28;20476;-82
2023/07/15 12:39:42;;;;;;;9.80;2.28;;;29.40;82.80;;;;;;5071932;28;20016;-83
2023/07/15 12:42:07;;;;;;;4.30;2.50;;;29.50;82.50;;;;;;5070573;28;20358;-84
2023/07/15 12:44:33;;;;;;;5.15;3.17;;;29.60;82.70;;;;;;5070924;28;20146;-84
2023/07/15 12:46:59;;;;;;;7.40;2.10;;;29.60;82.30;;;;;;5073314;28;20031;-90
2023/07/15 12:49:24;;;;;;;4.47;2.13;;;29.60;81.30;;;;;;5071649;28;20013;-86